Latest Weather Observations for Point Fawcett

IDD60801

Issued at 9:31 pm CST Sunday 22 January 2017 (issued every 30 minutes, with the page automatically refreshed every 10 minutes)

About weather observations | Map of weather stations | Latest weather observations for NT | Other Formats
Station Details ID: 200731 Name: POINT FAWCETT Lat: -11.76 Lon: 130.03 Height: 6.5 m
Data from the previous 72 hours. | See also: Recent months at Point Fawcett
Date/Time
CST
Temp
°C
App
Temp
°C
Dew
Point
°C
Rel
Hum
%
Delta-T
°C
Wind Press
QNH
hPa
Press
MSL
hPa
Rain since
9am
mm
Dir  Spd
km/h
Gust
km/h
Spd
kts
Gust
kts
22/09:30pm 28.3 32.0 27.1 93 0.9 WNW 22 30 12 16 1008.7 - 0.2
22/09:00pm 28.7 31.7 26.7 89 1.4 WNW 24 32 13 17 1008.4 1008.3 0.2
22/08:30pm 28.7 32.3 27.5 93 0.9 WNW 24 30 13 16 1008.3 - 0.2
22/08:00pm 28.6 30.8 27.2 92 1.0 WNW 30 37 16 20 1008.1 - 0.2
22/07:30pm 28.6 30.1 27.0 91 1.1 WNW 33 41 18 22 1007.9 - 0.2
22/07:00pm 29.0 31.5 27.0 89 1.4 W 28 35 15 19 1007.2 - 0.2
22/06:30pm 29.7 32.6 27.7 89 1.5 W 28 35 15 19 1007.0 - 0.0
22/06:00pm 29.9 32.2 27.3 86 1.9 W 30 39 16 21 1006.5 1006.4 0.0
22/05:30pm 30.0 32.6 27.2 85 2.0 W 28 37 15 20 1006.2 - 0.0
22/05:00pm 30.1 32.4 27.3 85 2.0 W 30 37 16 20 1006.2 - 0.0
22/04:30pm 30.1 32.4 27.3 85 2.0 W 30 39 16 21 1006.0 - 0.0
22/04:00pm 30.4 32.5 27.6 85 2.0 W 32 39 17 21 1005.9 - 0.0
22/03:30pm 30.5 32.9 27.5 84 2.2 W 30 35 16 19 1006.3 - 0.0
22/03:00pm 30.5 32.9 27.5 84 2.2 W 30 37 16 20 1006.9 1006.8 0.0
22/02:30pm 30.8 33.7 27.6 83 2.3 W 28 35 15 19 1006.9 - 0.0
22/02:00pm 31.3 34.9 28.1 83 2.3 W 26 33 14 18 1007.4 - 0.0
22/01:30pm 30.9 34.3 27.3 81 2.6 W 24 32 13 17 1007.9 - 0.0
22/01:00pm 31.4 35.1 27.7 81 2.7 W 24 32 13 17 1008.5 - 0.0
22/12:30pm 31.1 34.6 27.4 81 2.7 W 24 30 13 16 1008.8 - 0.0
22/12:00pm 30.8 34.1 27.2 81 2.6 W 24 32 13 17 1008.9 1008.8 0.0
22/11:30am 31.7 36.0 28.0 81 2.7 W 22 30 12 16 1008.9 - 0.0
22/11:00am 31.5 36.2 27.8 81 2.7 WSW 19 26 10 14 1009.1 - 0.0
22/10:30am 30.8 35.8 28.2 86 1.9 WSW 19 26 10 14 1009.5 - 0.0
22/10:00am 30.0 34.1 27.2 85 2.0 WSW 20 28 11 15 1009.7 - 0.0
22/09:30am 30.1 33.2 26.9 83 2.3 W 24 33 13 18 1009.7 - 0.0
22/09:00am 29.8 33.5 27.2 86 1.9 W 22 28 12 15 1009.6 1009.5 9.0
22/08:30am 29.6 33.6 27.0 86 1.9 W 20 28 11 15 1009.4 - 9.0
22/08:00am 29.3 33.8 27.5 90 1.3 W 19 26 10 14 1009.4 - 9.0
22/07:30am 29.1 33.1 27.1 89 1.4 W 20 26 11 14 1009.3 - 9.0
22/07:00am 29.0 33.1 27.2 90 1.3 W 20 24 11 13 1009.2 - 9.0
22/06:30am 29.1 32.9 27.3 90 1.3 W 22 30 12 16 1009.0 - 9.0
22/06:00am 28.9 32.4 26.9 89 1.4 W 22 30 12 16 1008.6 1008.5 9.0
22/05:30am 28.8 32.6 26.8 89 1.4 W 20 26 11 14 1008.3 - 9.0
22/05:00am 29.0 33.1 27.2 90 1.3 W 20 28 11 15 1008.4 - 9.0
22/04:30am 28.9 32.4 26.9 89 1.4 W 22 28 12 15 1008.5 - 9.0
22/04:00am 28.8 32.9 27.2 91 1.2 W 20 26 11 14 1008.5 - 9.0
22/03:30am 28.8 32.0 27.0 90 1.3 W 24 28 13 15 1008.5 - 9.0
22/03:00am 28.8 31.7 26.6 88 1.6 W 24 32 13 17 1008.7 1008.6 9.0
22/02:30am 28.8 32.4 27.0 90 1.3 W 22 30 12 16 1008.8 - 9.0
22/02:00am 28.8 31.7 26.6 88 1.6 W 24 32 13 17 1009.0 - 9.0
22/01:30am 28.8 32.5 26.6 88 1.6 W 20 26 11 14 1009.2 - 9.0
22/01:00am 28.8 33.3 27.0 90 1.3 W 17 22 9 12 1009.7 - 9.0
22/12:30am 28.8 33.2 26.8 89 1.4 W 17 20 9 11 1009.9 - 9.0
22/12:00am 28.7 33.4 26.7 89 1.4 W 15 20 8 11 1010.2 1010.1 9.0
 
Date/Time
CST
Temp
°C
App
Temp
°C
Dew
Point
°C
Rel
Hum
%
Delta-T
°C
Wind Press
QNH
hPa
Press
MSL
hPa
Rain since
9am
mm
Dir  Spd
km/h
Gust
km/h
Spd
kts
Gust
kts
21/11:30pm 28.7 33.4 26.7 89 1.4 W 15 20 8 11 1010.3 - 9.0
21/11:00pm 28.8 33.2 26.8 89 1.4 W 17 20 9 11 1010.4 - 9.0
21/10:30pm 28.8 33.0 27.0 90 1.3 W 19 22 10 12 1010.2 - 9.0
21/10:00pm 28.7 32.8 26.9 90 1.3 W 19 22 10 12 1010.0 - 9.0
21/09:30pm 29.0 32.3 27.2 90 1.3 WNW 24 30 13 16 1009.8 - 9.0
21/09:00pm 29.1 32.5 26.7 87 1.7 W 22 28 12 15 1009.8 1009.7 9.0
21/08:30pm 29.0 32.5 26.8 88 1.6 W 22 28 12 15 1009.6 - 9.0
21/08:00pm 28.9 32.3 26.7 88 1.6 W 22 28 12 15 1009.2 - 9.0
21/07:30pm 29.0 32.5 26.8 88 1.6 W 22 30 12 16 1009.0 - 9.0
21/07:00pm 29.1 33.0 26.9 88 1.6 W 20 26 11 14 1008.4 - 9.0
21/06:30pm 29.0 32.3 26.6 87 1.7 W 22 28 12 15 1008.2 - 9.0
21/06:00pm 29.1 32.9 26.7 87 1.7 W 20 26 11 14 1007.9 1007.8 9.0
21/05:30pm 29.0 32.7 27.7 93 0.9 W 24 32 13 17 1007.4 - 9.0
21/05:00pm 27.4 34.3 27.4 100 0.0 W 6 9 3 5 1007.2 - 9.0
21/04:30pm 26.6 33.3 26.6 100 0.0 S 4 9 2 5 1007.4 - 9.0
21/04:00pm 27.1 28.8 26.4 96 0.5 WSW 30 48 16 26 1007.9 - 6.8
21/03:59pm 27.3 29.3 26.4 95 0.6 WSW 28 48 15 26 1007.8 - 5.8
21/03:30pm 30.6 34.9 27.2 82 2.5 WNW 19 24 10 13 1007.7 - 4.6
21/03:00pm 30.7 35.1 26.8 80 2.8 W 17 24 9 13 1007.9 1007.8 4.6
21/02:30pm 31.5 35.8 27.2 78 3.1 W 19 22 10 12 1008.2 - 4.6
21/02:00pm 31.4 36.4 27.1 78 3.1 W 15 19 8 10 1008.3 - 4.6
21/01:30pm 30.7 34.8 26.4 78 3.1 W 17 20 9 11 1008.6 - 4.6
21/01:00pm 30.8 35.6 27.4 82 2.5 W 17 20 9 11 1008.9 - 4.6
21/12:30pm 30.8 36.1 27.6 83 2.3 W 15 22 8 12 1009.4 - 4.6
21/12:00pm 30.6 36.6 28.0 86 1.9 W 13 15 7 8 1010.0 1009.9 4.6
21/11:30am 29.8 36.4 27.2 86 1.9 SW 7 9 4 5 1010.2 - 4.6
21/11:00am 29.2 37.2 27.8 92 1.0 S 2 7 1 4 1010.8 - 4.6
21/10:30am 28.4 36.6 28.2 99 0.1 S 2 7 1 4 1010.6 - 4.6
21/10:00am 27.4 35.1 27.4 100 0.0 SSE 2 7 1 4 1010.7 - 4.6
21/09:30am 27.1 34.2 27.1 100 0.0 S 4 7 2 4 1010.7 - 4.6
21/09:00am 28.4 31.5 25.4 84 2.1 SW 19 26 10 14 1010.6 1010.5 10.0
21/08:30am 29.0 34.5 26.8 88 1.6 W 11 17 6 9 1010.4 - 10.0
21/08:00am 28.6 33.6 26.6 89 1.4 W 13 17 7 9 1010.1 - 10.0
21/07:30am 28.3 32.6 25.5 85 2.0 WNW 13 19 7 10 1009.9 - 10.0
21/07:00am 28.4 32.7 26.6 90 1.3 WNW 17 24 9 13 1009.2 - 10.0
21/06:30am 28.7 33.0 26.7 89 1.4 WNW 17 24 9 13 1009.1 - 10.0
21/06:00am 28.6 32.7 26.4 88 1.6 WNW 17 22 9 12 1008.7 1008.6 10.0
21/05:30am 28.7 32.9 26.5 88 1.6 WNW 17 20 9 11 1008.3 - 10.0
21/05:00am 28.3 32.6 26.1 88 1.6 WNW 15 19 8 10 1008.1 - 10.0
21/04:30am 28.4 32.1 25.8 86 1.8 WNW 17 20 9 11 1007.9 - 10.0
21/04:00am 28.3 32.9 25.9 87 1.7 WNW 13 17 7 9 1007.9 - 10.0
21/03:30am 28.3 32.0 25.7 86 1.8 WNW 17 20 9 11 1008.2 - 10.0
21/03:00am 28.1 32.4 26.1 89 1.4 WNW 15 19 8 10 1008.2 1008.1 10.0
21/02:30am 28.3 33.0 26.1 88 1.6 WNW 13 17 7 9 1008.4 - 10.0
21/02:00am 28.4 33.2 26.2 88 1.6 WNW 13 19 7 10 1008.4 - 10.0
21/01:30am 28.4 32.5 25.8 86 1.8 WNW 15 19 8 10 1008.7 - 10.0
21/01:00am 28.2 33.3 26.2 89 1.4 NW 11 15 6 8 1008.8 - 10.0
21/12:30am 28.4 33.0 26.0 87 1.7 NW 13 17 7 9 1009.2 - 10.0
21/12:00am 28.3 33.8 26.7 91 1.1 NW 11 15 6 8 1009.5 1009.4 10.0
 
Date/Time
CST
Temp
°C
App
Temp
°C
Dew
Point
°C
Rel
Hum
%
Delta-T
°C
Wind Press
QNH
hPa
Press
MSL
hPa
Rain since
9am
mm
Dir  Spd
km/h
Gust
km/h
Spd
kts
Gust
kts
20/11:30pm 28.1 34.0 26.7 92 1.0 NW 9 13 5 7 1009.7 - 10.0
20/11:00pm 28.3 33.0 26.7 91 1.1 NW 15 19 8 10 1009.6 - 10.0
20/10:30pm 27.8 33.2 26.6 93 0.9 NNW 11 13 6 7 1009.4 - 10.0
20/10:00pm 27.8 34.2 27.5 98 0.2 N 9 13 5 7 1009.2 - 10.0
20/09:30pm 27.7 34.0 27.4 98 0.2 N 9 15 5 8 1008.9 - 10.0
20/09:00pm 27.5 33.7 27.2 98 0.2 N 9 15 5 8 1008.5 1008.4 10.0
20/08:30pm 27.3 33.0 27.1 99 0.1 NNW 11 15 6 8 1008.3 - 10.0
20/08:00pm 27.4 33.4 27.4 100 0.0 N 11 15 6 8 1008.0 - 10.0
20/07:30pm 27.3 32.7 26.6 96 0.5 NNW 11 17 6 9 1007.8 - 10.0
20/07:00pm 27.4 32.5 26.7 96 0.5 N 13 17 7 9 1007.6 - 10.0
20/06:30pm 27.6 32.3 26.7 95 0.6 NNW 15 20 8 11 1007.5 - 10.0
20/06:00pm 27.8 33.8 26.9 95 0.6 NW 9 13 5 7 1007.2 1007.1 10.0
20/05:30pm 28.2 32.9 27.3 95 0.6 W 17 24 9 13 1006.9 - 10.0
20/05:00pm 27.9 35.3 27.6 98 0.2 W 4 9 2 5 1006.9 - 10.0
20/04:30pm 27.6 34.5 27.4 99 0.1 W 6 9 3 5 1007.0 - 10.0
20/04:00pm 27.6 34.1 27.6 100 0.0 W 9 13 5 7 1007.4 - 10.0
20/03:30pm 27.0 33.1 27.0 100 0.0 WSW 9 13 5 7 1007.5 - 10.0
20/03:00pm 26.6 32.0 26.6 100 0.0 SW 11 15 6 8 1007.3 1007.2 10.0
20/02:30pm 26.1 30.8 26.1 100 0.0 WSW 13 17 7 9 1007.7 - 10.0
20/02:00pm 25.3 30.2 25.3 100 0.0 SSW 9 15 5 8 1007.9 - 9.8
20/01:30pm 24.5 29.9 24.5 100 0.0 SSE 4 7 2 4 1008.7 - 9.4
20/01:00pm 24.5 28.6 24.5 100 0.0 SW 11 17 6 9 1009.1 - 9.0
20/12:30pm 25.7 28.6 25.4 98 0.2 SSW 20 35 11 19 1009.5 - 4.0
20/12:00pm 29.2 36.2 26.4 85 2.0 NNW 2 9 1 5 1009.4 1009.3 0.2
20/11:30am 29.2 35.1 26.8 87 1.7 N 9 13 5 7 1009.2 - 0.2
20/11:00am 29.2 35.6 27.0 88 1.6 NNE 7 13 4 7 1009.2 - 0.2
20/10:30am 29.1 34.8 27.5 91 1.2 N 13 19 7 10 1009.4 - 0.0
20/10:00am 28.8 35.0 27.7 94 0.8 N 11 15 6 8 1009.8 - 0.0
20/09:30am 28.2 34.6 27.5 96 0.5 NNE 9 13 5 7 1009.8 - 0.0
20/09:00am 27.6 34.1 27.6 100 0.0 NNE 9 13 5 7 1009.4 1009.3 28.8
20/08:30am 27.2 33.4 27.2 100 0.0 NNE 9 13 5 7 1009.0 - 28.8
20/08:00am 26.4 31.7 26.4 100 0.0 N 11 15 6 8 1009.0 - 28.8
20/07:30am 25.9 30.3 25.7 99 0.1 NNE 13 22 7 12 1008.7 - 28.8
20/07:00am 26.3 30.4 26.3 100 0.0 N 17 24 9 13 1008.3 - 28.8
20/06:30am 26.2 31.0 26.2 100 0.0 N 13 19 7 10 1008.0 - 28.8
20/06:00am 25.4 30.4 25.4 100 0.0 N 9 13 5 7 1007.7 1007.6 28.8
20/05:30am 24.8 29.0 24.8 100 0.0 NNE 11 15 6 8 1007.6 - 28.6
20/05:00am 24.9 28.1 24.9 100 0.0 NNW 17 22 9 12 1007.4 - 28.4
20/04:30am 25.3 27.8 25.3 100 0.0 NNW 22 30 12 16 1007.5 - 26.6
20/04:00am 25.0 28.6 25.0 100 0.0 N 15 22 8 12 1007.5 - 23.4
20/03:30am 24.9 29.6 24.9 100 0.0 N 9 17 5 9 1007.6 - 22.8
20/03:00am 25.1 29.1 25.1 100 0.0 SSW 13 19 7 10 1008.1 1008.0 18.0
20/02:30am 27.0 31.6 25.4 91 1.1 SW 11 24 6 13 1007.4 - 0.4
20/02:00am 28.5 33.5 26.5 89 1.4 NW 13 17 7 9 1007.6 - 0.2
20/01:30am 28.5 32.8 26.1 87 1.7 NW 15 19 8 10 1007.6 - 0.2
20/01:00am 28.6 33.2 26.0 86 1.8 NW 13 19 7 10 1007.8 - 0.2
20/12:30am 28.5 32.9 26.3 88 1.6 NW 15 19 8 10 1008.0 - 0.2
20/12:00am 28.6 33.2 26.6 89 1.4 NNW 15 20 8 11 1008.4 1008.3 0.2
 
Date/Time
CST
Temp
°C
App
Temp
°C
Dew
Point
°C
Rel
Hum
%
Delta-T
°C
Wind Press
QNH
hPa
Press
MSL
hPa
Rain since
9am
mm
Dir  Spd
km/h
Gust
km/h
Spd
kts
Gust
kts
19/11:30pm 28.6 33.1 26.4 88 1.6 NNW 15 20 8 11 1009.0 - 0.2
19/11:00pm 28.6 33.3 27.2 92 1.0 NNW 17 20 9 11 1008.7 - 0.2
19/10:30pm 28.5 32.7 26.5 89 1.4 NNW 17 20 9 11 1008.6 - 0.2
19/10:00pm 28.5 33.0 26.9 91 1.1 NNW 17 20 9 11 1008.6 - 0.2

Other Formats:

Comma delimited format used in spreadsheet applications
http://www.bom.gov.au/fwo/IDD60801/IDD60801.94122.axf

JavaScript Object Notation format (JSON) in row-major order
http://www.bom.gov.au/fwo/IDD60801/IDD60801.94122.json